createdAt,value
2018-02-18T00:00:10.621Z,13.38
2018-02-18T00:02:38.918Z,13.48
2018-02-18T00:05:06.449Z,15.52
2018-02-18T00:07:34.748Z,13.25
2018-02-18T00:10:02.293Z,14.87
2018-02-18T00:12:29.815Z,12.70
2018-02-18T00:14:57.328Z,13.40
2018-02-18T00:17:24.841Z,12.57
2018-02-18T00:19:52.372Z,15.38
2018-02-18T00:22:19.887Z,13.50
2018-02-18T00:24:48.194Z,12.27
2018-02-18T00:27:15.725Z,13.05
2018-02-18T00:29:43.998Z,12.60
2018-02-18T00:32:12.302Z,13.25
2018-02-18T00:34:39.860Z,12.10
2018-02-18T00:37:07.390Z,13.10
2018-02-18T00:39:35.653Z,12.52
2018-02-18T00:42:03.948Z,12.50
2018-02-18T00:44:31.453Z,12.70
2018-02-18T00:46:58.973Z,13.98
2018-02-18T00:49:27.249Z,13.18
2018-02-18T00:51:55.543Z,13.40
2018-02-18T00:54:23.054Z,13.50
2018-02-18T00:56:50.587Z,12.82
2018-02-18T00:59:18.109Z,13.98
2018-02-18T01:01:46.398Z,13.62
2018-02-18T01:04:13.936Z,12.63
2018-02-18T01:06:42.226Z,12.13
2018-02-18T01:09:09.737Z,12.13
2018-02-18T01:11:37.249Z,11.88
2018-02-18T01:14:04.777Z,12.27
2018-02-18T01:16:33.062Z,11.80
2018-02-18T01:19:01.367Z,12.20
2018-02-18T01:21:28.885Z,11.88
2018-02-18T01:23:57.925Z,11.85
2018-02-18T01:26:25.444Z,12.90
2018-02-18T01:28:54.475Z,10.43
2018-02-18T01:31:22.045Z,10.70
2018-02-18T01:33:49.554Z,12.73
2018-02-18T01:36:17.063Z,11.50
2018-02-18T01:38:44.588Z,11.45
2018-02-18T01:41:12.881Z,11.02
2018-02-18T01:43:40.402Z,11.70
2018-02-18T01:46:07.913Z,11.45
2018-02-18T01:48:35.432Z,10.27
2018-02-18T01:51:02.993Z,10.48
2018-02-18T01:53:31.366Z,10.75
2018-02-18T01:55:59.678Z,11.82
2018-02-18T01:58:27.925Z,11.23
2018-02-18T02:00:55.417Z,11.55
2018-02-18T02:03:22.909Z,12.18
2018-02-18T02:05:50.417Z,10.63
2018-02-18T02:08:17.888Z,10.68
2018-02-18T02:10:46.138Z,11.70
2018-02-18T02:13:13.622Z,11.12
2018-02-18T02:15:41.881Z,12.23
2018-02-18T02:18:10.132Z,12.07
2018-02-18T02:20:37.613Z,11.20
2018-02-18T02:23:05.097Z,11.00
2018-02-18T02:25:33.337Z,12.55
2018-02-18T02:28:00.822Z,11.48
2018-02-18T02:30:29.061Z,11.95
2018-02-18T02:32:56.553Z,12.45
2018-02-18T02:35:24.793Z,11.40
2018-02-18T02:37:52.277Z,12.45
2018-02-18T02:40:21.266Z,12.20
2018-02-18T02:42:48.757Z,11.50
2018-02-18T02:45:16.997Z,12.43
2018-02-18T02:47:44.565Z,12.05
2018-02-18T02:50:12.050Z,12.68
2018-02-18T02:52:39.535Z,13.40
2018-02-18T02:55:07.026Z,12.70
2018-02-18T02:57:34.503Z,12.27
2018-02-18T03:00:01.985Z,13.00
2018-02-18T03:02:29.460Z,12.43
2018-02-18T03:04:56.947Z,12.63
2018-02-18T03:07:24.420Z,12.52
2018-02-18T03:09:51.905Z,12.82
2018-02-18T03:12:20.145Z,13.23
2018-02-18T03:14:47.637Z,13.52
2018-02-18T03:17:15.889Z,12.13
2018-02-18T03:19:43.363Z,12.30
2018-02-18T03:22:11.621Z,11.43
2018-02-18T03:24:39.103Z,12.85
2018-02-18T03:27:07.369Z,13.52
2018-02-18T03:29:34.850Z,13.25
2018-02-18T03:32:03.097Z,11.80
2018-02-18T03:34:30.574Z,12.63
2018-02-18T03:36:58.826Z,10.73
2018-02-18T03:39:26.313Z,13.82
2018-02-18T03:41:54.565Z,13.77
2018-02-18T03:44:22.147Z,14.20
2018-02-18T03:46:50.397Z,12.60
2018-02-18T03:49:17.872Z,15.30
2018-02-18T03:51:46.128Z,15.50
2018-02-18T03:54:13.611Z,15.85
2018-02-18T03:56:41.109Z,13.95
2018-02-18T03:59:08.585Z,14.35
2018-02-18T04:01:36.080Z,14.65
2018-02-18T04:04:05.065Z,16.23
2018-02-18T04:06:32.543Z,13.23
2018-02-18T04:09:00.026Z,15.23
2018-02-18T04:11:27.502Z,15.98
2018-02-18T04:13:54.985Z,14.73
2018-02-18T04:16:22.457Z,13.60
2018-02-18T04:18:49.942Z,16.10
2018-02-18T04:21:18.181Z,14.35
2018-02-18T04:23:45.666Z,15.13
2018-02-18T04:26:13.144Z,16.25
2018-02-18T04:28:41.397Z,15.48
2018-02-18T04:31:08.882Z,15.60
2018-02-18T04:33:36.372Z,15.98
2018-02-18T04:36:03.851Z,15.98
2018-02-18T04:38:31.353Z,14.55
2018-02-18T04:40:59.597Z,14.93
2018-02-18T04:43:27.093Z,15.48
2018-02-18T04:45:55.337Z,15.82
2018-02-18T04:48:22.813Z,15.48
2018-02-18T04:50:51.077Z,15.95
2018-02-18T04:53:18.561Z,15.98
2018-02-18T04:55:46.812Z,15.45
2018-02-18T04:58:14.288Z,15.63
2018-02-18T05:00:42.540Z,15.43
2018-02-18T05:03:10.021Z,15.68
2018-02-18T05:05:38.272Z,16.77
2018-02-18T05:08:05.764Z,16.52
2018-02-18T05:10:34.013Z,16.75
2018-02-18T05:13:01.493Z,17.45
2018-02-18T05:15:29.745Z,16.42
2018-02-18T05:17:57.220Z,15.40
2018-02-18T05:20:24.708Z,16.40
2018-02-18T05:22:52.190Z,15.57
2018-02-18T05:25:19.664Z,16.37
2018-02-18T05:27:47.149Z,16.42
2018-02-18T05:30:14.630Z,16.60
2018-02-18T05:32:42.878Z,16.37
2018-02-18T05:35:11.123Z,16.73
2018-02-18T05:37:38.605Z,14.85
2018-02-18T05:40:07.595Z,15.88
2018-02-18T05:42:35.085Z,14.65
2018-02-18T05:45:03.325Z,17.70
2018-02-18T05:47:30.811Z,16.77
2018-02-18T05:49:58.284Z,17.33
2018-02-18T05:52:26.537Z,16.50
2018-02-18T05:54:55.517Z,16.73
2018-02-18T05:57:23.012Z,16.83
2018-02-18T05:59:51.248Z,14.05
2018-02-18T06:02:18.732Z,16.30
2018-02-18T06:04:46.980Z,14.68
2018-02-18T06:07:14.457Z,15.07
2018-02-18T06:09:41.949Z,17.75
2018-02-18T06:12:09.442Z,17.80
2018-02-18T06:14:37.352Z,17.45
2018-02-18T06:17:04.824Z,16.48
2018-02-18T06:19:33.077Z,16.90
2018-02-18T06:22:00.553Z,18.15
2018-02-18T06:24:28.814Z,17.62
2018-02-18T06:26:56.284Z,15.82
2018-02-18T06:29:24.533Z,17.60
2018-02-18T06:31:52.013Z,18.50
2018-02-18T06:34:19.501Z,17.90
2018-02-18T06:36:46.977Z,16.92
2018-02-18T06:39:14.450Z,17.08
2018-02-18T06:41:41.929Z,16.90
2018-02-18T06:44:09.401Z,13.60
2018-02-18T06:46:36.889Z,17.40
2018-02-18T06:49:05.126Z,17.70
2018-02-18T06:51:32.605Z,18.85
2018-02-18T06:54:00.845Z,18.87
2018-02-18T06:56:28.328Z,18.83
2018-02-18T06:58:55.816Z,17.92
2018-02-18T07:01:24.060Z,17.48
2018-02-18T07:03:51.794Z,12.98
2018-02-18T07:06:19.293Z,19.02
2018-02-18T07:08:47.538Z,19.25
2018-02-18T07:11:15.013Z,15.27
2018-02-18T07:13:42.497Z,17.70
2018-02-18T07:16:10.741Z,19.23
2018-02-18T07:18:38.225Z,18.08
2018-02-18T07:21:06.481Z,17.65
2018-02-18T07:23:33.965Z,18.55
2018-02-18T07:26:02.205Z,18.67
2018-02-18T07:28:29.689Z,18.75
2018-02-18T07:30:57.163Z,17.52
2018-02-18T07:33:25.412Z,18.15
2018-02-18T07:35:52.901Z,17.58
2018-02-18T07:38:21.156Z,16.85
2018-02-18T07:40:48.633Z,18.70
2018-02-18T07:43:16.877Z,18.73
2018-02-18T07:45:44.361Z,15.43
2018-02-18T07:48:11.824Z,17.43
2018-02-18T07:50:40.065Z,16.50
2018-02-18T07:53:07.541Z,17.60
2018-02-18T07:55:35.021Z,16.27
2018-02-18T07:58:03.256Z,17.03
2018-02-18T08:00:30.738Z,17.90
2018-02-18T08:02:58.211Z,16.27
2018-02-18T08:05:26.472Z,16.60
2018-02-18T08:07:53.945Z,17.33
2018-02-18T08:10:22.185Z,15.53
2018-02-18T08:12:49.658Z,17.53
2018-02-18T08:15:17.149Z,17.30
2018-02-18T08:17:44.619Z,17.50
2018-02-18T08:20:12.089Z,17.53
2018-02-18T08:22:39.573Z,16.23
2018-02-18T08:25:07.043Z,16.00
2018-02-18T08:27:36.025Z,16.43
2018-02-18T08:30:03.510Z,18.67
2018-02-18T08:32:30.979Z,14.50
2018-02-18T08:34:59.215Z,16.80
2018-02-18T08:37:26.696Z,17.90
2018-02-18T08:39:54.170Z,17.13
2018-02-18T08:42:22.409Z,17.07
2018-02-18T08:44:49.885Z,17.33
2018-02-18T08:47:18.133Z,18.00
2018-02-18T08:49:45.607Z,16.03
2018-02-18T08:52:13.101Z,14.83
2018-02-18T08:54:41.340Z,16.13
2018-02-18T08:57:08.814Z,17.57
2018-02-18T08:59:36.297Z,13.53
2018-02-18T09:02:04.542Z,14.33
2018-02-18T09:04:32.025Z,14.70
2018-02-18T09:07:00.257Z,14.13
2018-02-18T09:09:27.741Z,15.30
2018-02-18T09:11:55.213Z,14.40
2018-02-18T09:14:22.691Z,16.10
2018-02-18T09:16:53.738Z,15.10
2018-02-18T09:19:21.220Z,16.23
2018-02-18T09:21:48.722Z,16.10
2018-02-18T09:24:16.213Z,16.30
2018-02-18T09:26:43.705Z,16.30
2018-02-18T09:29:11.182Z,15.47
2018-02-18T09:31:38.670Z,13.77
2018-02-18T09:34:06.930Z,15.40
2018-02-18T09:36:34.405Z,14.57
2018-02-18T09:39:02.646Z,14.73
2018-02-18T09:41:30.117Z,14.83
2018-02-18T09:43:57.848Z,16.20
2018-02-18T09:46:25.339Z,14.83
2018-02-18T09:48:52.813Z,14.30
2018-02-18T09:51:20.295Z,13.60
2018-02-18T09:53:48.529Z,15.13
2018-02-18T09:56:16.009Z,14.90
2018-02-18T09:58:44.249Z,14.13
2018-02-18T10:01:11.737Z,13.47
2018-02-18T10:03:39.210Z,13.40
2018-02-18T10:06:07.459Z,14.90
2018-02-18T10:08:35.752Z,15.07
2018-02-18T10:11:03.212Z,15.43
2018-02-18T10:13:31.465Z,14.00
2018-02-18T10:15:58.940Z,13.63
2018-02-18T10:18:26.413Z,13.77
2018-02-18T10:20:54.658Z,14.40
2018-02-18T10:23:22.141Z,14.63
2018-02-18T10:25:49.605Z,12.37
2018-02-18T10:28:17.844Z,14.33
2018-02-18T10:30:45.313Z,14.10
2018-02-18T10:33:12.796Z,12.87
2018-02-18T10:35:41.030Z,14.33
2018-02-18T10:38:08.516Z,13.67
2018-02-18T10:40:35.990Z,14.33
2018-02-18T10:43:04.226Z,12.37
2018-02-18T10:45:31.768Z,14.37
2018-02-18T10:47:59.293Z,13.03
2018-02-18T10:50:26.725Z,15.33
2018-02-18T10:52:54.192Z,14.60
2018-02-18T10:55:21.673Z,14.53
2018-02-18T10:57:49.912Z,13.60
2018-02-18T11:00:17.390Z,14.90
2018-02-18T11:02:45.639Z,13.70
2018-02-18T11:05:13.233Z,12.17
2018-02-18T11:07:41.465Z,13.93
2018-02-18T11:10:08.949Z,11.23
2018-02-18T11:12:36.416Z,12.50
2018-02-18T11:15:03.919Z,11.17
2018-02-18T11:17:31.400Z,11.87
2018-02-18T11:19:58.869Z,11.83
2018-02-18T11:22:26.349Z,12.27
2018-02-18T11:24:54.598Z,11.13
2018-02-18T11:27:22.070Z,11.50
2018-02-18T11:29:49.536Z,10.97
2018-02-18T11:32:17.786Z,13.40
2018-02-18T11:34:45.257Z,12.57
2018-02-18T11:37:12.743Z,12.07
2018-02-18T11:39:40.977Z,11.40
2018-02-18T11:42:08.508Z,11.30
2018-02-18T11:44:35.948Z,12.47
2018-02-18T11:47:04.189Z,13.37
2018-02-18T11:49:31.661Z,12.27
2018-02-18T11:51:59.137Z,9.87
2018-02-18T11:54:27.375Z,9.17
2018-02-18T11:56:54.865Z,8.80
2018-02-18T11:59:23.097Z,8.53
2018-02-18T12:01:50.574Z,8.57
2018-02-18T12:04:18.048Z,8.83
2018-02-18T12:06:45.513Z,9.03
2018-02-18T12:09:13.753Z,9.03
2018-02-18T12:11:41.226Z,10.00
2018-02-18T12:14:08.701Z,8.13
2018-02-18T12:16:36.932Z,9.03
2018-02-18T12:19:04.409Z,9.27
2018-02-18T12:21:31.892Z,10.27
2018-02-18T12:23:59.372Z,9.57
2018-02-18T12:26:27.651Z,10.40
2018-02-18T12:28:55.173Z,10.63
2018-02-18T12:31:22.645Z,11.97
2018-02-18T12:33:50.118Z,9.70
2018-02-18T12:36:18.369Z,8.87
2018-02-18T12:38:45.837Z,8.57
2018-02-18T12:41:13.321Z,9.20
2018-02-18T12:43:40.786Z,8.63
2018-02-18T12:46:08.269Z,9.43
2018-02-18T12:48:35.738Z,9.83
2018-02-18T12:51:03.213Z,9.87
2018-02-18T12:53:30.689Z,9.47
2018-02-18T12:55:58.297Z,10.47
2018-02-18T12:58:25.765Z,9.20
2018-02-18T13:00:53.253Z,9.63
2018-02-18T13:03:20.724Z,11.00
2018-02-18T13:05:49.261Z,10.63
2018-02-18T13:08:16.733Z,11.00
2018-02-18T13:10:44.205Z,10.57
2018-02-18T13:13:11.685Z,11.97
2018-02-18T13:15:39.246Z,11.77
2018-02-18T13:18:07.488Z,11.43
2018-02-18T13:20:34.956Z,11.37
2018-02-18T13:23:02.435Z,11.50
2018-02-18T13:25:29.901Z,11.83
2018-02-18T13:27:58.145Z,11.77
2018-02-18T13:30:25.609Z,11.33
2018-02-18T13:32:53.864Z,11.20
2018-02-18T13:35:21.339Z,12.33
2018-02-18T13:37:48.817Z,11.50
2018-02-18T13:40:16.286Z,11.63
2018-02-18T13:42:44.525Z,11.47
2018-02-18T13:45:11.997Z,12.07
2018-02-18T13:47:39.487Z,11.47
2018-02-18T13:50:07.749Z,10.30
2018-02-18T13:52:35.221Z,12.63
2018-02-18T13:55:03.460Z,12.07
2018-02-18T13:57:30.941Z,10.67
2018-02-18T13:59:58.417Z,12.07
2018-02-18T14:02:26.649Z,11.83
2018-02-18T14:04:54.129Z,12.77
2018-02-18T14:07:22.094Z,11.90
2018-02-18T14:09:49.627Z,12.87
2018-02-18T14:12:17.105Z,13.13
2018-02-18T14:14:44.581Z,12.50
2018-02-18T14:17:12.812Z,13.00
2018-02-18T14:19:40.302Z,11.67
2018-02-18T14:22:08.026Z,10.40
2018-02-18T14:24:36.566Z,12.03
2018-02-18T14:27:04.810Z,11.87
2018-02-18T14:29:32.286Z,12.30
2018-02-18T14:31:59.773Z,10.83
2018-02-18T14:34:28.034Z,11.17
2018-02-18T14:36:55.551Z,11.57
2018-02-18T14:39:23.018Z,11.10
2018-02-18T14:42:02.478Z,11.43
2018-02-18T14:44:41.732Z,12.17
2018-02-18T14:47:21.896Z,11.60
2018-02-18T14:50:02.122Z,10.80
2018-02-18T14:52:41.524Z,11.97
2018-02-18T14:55:20.962Z,11.40
2018-02-18T14:57:48.437Z,11.30
2018-02-18T15:00:15.905Z,11.70
2018-02-18T15:02:43.381Z,13.77
2018-02-18T15:05:10.846Z,12.07
2018-02-18T15:07:39.102Z,12.73
2018-02-18T15:10:06.573Z,10.80
2018-02-18T15:12:34.074Z,11.73
2018-02-18T15:15:01.540Z,10.87
2018-02-18T15:17:29.005Z,10.70
2018-02-18T15:19:56.486Z,10.87
2018-02-18T15:22:23.957Z,10.73
2018-02-18T15:24:51.433Z,9.83
2018-02-18T15:27:19.961Z,9.40
2018-02-18T15:29:47.437Z,9.43
2018-02-18T15:32:14.939Z,9.87
2018-02-18T15:34:43.186Z,10.50
2018-02-18T15:37:10.656Z,11.90
2018-02-18T15:39:38.905Z,10.90
2018-02-18T15:42:06.373Z,11.13
2018-02-18T15:44:33.845Z,13.20
2018-02-18T15:47:01.317Z,12.93
2018-02-18T15:49:28.814Z,12.70
2018-02-18T15:51:56.276Z,12.33
2018-02-18T15:54:23.754Z,13.53
2018-02-18T15:56:51.237Z,13.37
2018-02-18T15:59:18.710Z,11.87
2018-02-18T16:01:46.193Z,14.07
2018-02-18T16:04:13.661Z,13.27
2018-02-18T16:06:41.137Z,13.63
2018-02-18T16:09:08.609Z,13.53
2018-02-18T16:11:36.088Z,13.20
2018-02-18T16:14:03.553Z,12.77
2018-02-18T16:16:31.035Z,13.00
2018-02-18T16:18:59.270Z,12.37
2018-02-18T16:21:26.753Z,10.67
2018-02-18T16:23:54.241Z,12.30
2018-02-18T16:26:21.713Z,11.80
2018-02-18T16:28:49.198Z,11.07
2018-02-18T16:31:16.669Z,10.70
2018-02-18T16:33:44.153Z,11.27
2018-02-18T16:36:12.392Z,10.87
2018-02-18T16:38:39.878Z,10.37
2018-02-18T16:41:07.353Z,10.70
2018-02-18T16:43:35.603Z,11.63
2018-02-18T16:46:03.072Z,11.90
2018-02-18T16:48:31.354Z,10.70
2018-02-18T16:50:58.848Z,11.87
2018-02-18T16:53:26.316Z,11.43
2018-02-18T16:55:53.825Z,12.77
2018-02-18T16:58:21.293Z,12.90
2018-02-18T17:00:49.538Z,12.00
2018-02-18T17:03:17.059Z,13.00
2018-02-18T17:05:44.497Z,12.73
2018-02-18T17:08:12.736Z,14.53
2018-02-18T17:10:40.228Z,14.33
2018-02-18T17:13:08.461Z,14.27
2018-02-18T17:15:35.937Z,14.60
2018-02-18T17:18:04.189Z,15.70
2018-02-18T17:20:31.669Z,15.87
2018-02-18T17:22:59.139Z,15.43
2018-02-18T17:25:27.402Z,16.33
2018-02-18T17:27:55.636Z,16.63
2018-02-18T17:30:23.106Z,15.30
2018-02-18T17:32:50.593Z,17.97
2018-02-18T17:35:18.069Z,17.10
2018-02-18T17:37:45.549Z,17.00
2018-02-18T17:40:13.781Z,16.63
2018-02-18T17:42:41.256Z,15.77
2018-02-18T17:45:08.725Z,15.80
2018-02-18T17:47:36.972Z,16.07
2018-02-18T17:50:04.455Z,16.63
2018-02-18T17:52:31.938Z,16.23
2018-02-18T17:54:59.401Z,15.53
2018-02-18T17:57:26.945Z,15.07
2018-02-18T17:59:54.378Z,14.77
2018-02-18T18:02:21.857Z,16.23
2018-02-18T18:04:50.097Z,16.37
2018-02-18T18:07:17.590Z,15.87
2018-02-18T18:09:45.825Z,16.53
2018-02-18T18:12:13.301Z,15.13
2018-02-18T18:14:42.297Z,15.87
2018-02-18T18:17:09.773Z,14.73
2018-02-18T18:19:38.018Z,14.47
2018-02-18T18:22:05.495Z,15.73
2018-02-18T18:24:32.974Z,17.83
2018-02-18T18:27:05.074Z,17.80
2018-02-18T18:29:32.558Z,16.30
2018-02-18T18:32:00.025Z,14.87
2018-02-18T18:34:27.753Z,15.50
2018-02-18T18:36:55.232Z,15.57
2018-02-18T18:39:22.724Z,15.27
2018-02-18T18:41:50.196Z,16.30
2018-02-18T18:44:18.441Z,15.27
2018-02-18T18:46:45.917Z,15.30
2018-02-18T18:49:13.478Z,16.63
2018-02-18T18:51:40.945Z,15.03
2018-02-18T18:54:09.186Z,13.73
2018-02-18T18:56:36.669Z,15.47
2018-02-18T18:59:04.137Z,16.07
2018-02-18T19:01:32.390Z,16.07
2018-02-18T19:04:00.633Z,14.90
2018-02-18T19:06:28.118Z,15.70
2018-02-18T19:08:55.594Z,15.43
2018-02-18T19:11:23.072Z,15.03
2018-02-18T19:13:50.549Z,15.03
2018-02-18T19:16:18.029Z,17.13
2018-02-18T19:18:45.496Z,15.13
2018-02-18T19:21:12.972Z,20.58
2018-02-18T19:23:40.455Z,15.50
2018-02-18T19:26:08.709Z,16.83
2018-02-18T19:28:36.177Z,18.20
2018-02-18T19:31:03.654Z,16.73
2018-02-18T19:33:31.893Z,16.53
2018-02-18T19:35:59.368Z,17.33
2018-02-18T19:38:26.845Z,17.00
2018-02-18T19:40:55.077Z,16.27
2018-02-18T19:43:22.548Z,16.53
2018-02-18T19:45:50.782Z,15.43
2018-02-18T19:48:18.261Z,15.97
2018-02-18T19:50:45.745Z,18.57
2018-02-18T19:53:14.755Z,16.73
2018-02-18T19:55:42.225Z,17.47
2018-02-18T19:58:10.468Z,15.77
2018-02-18T20:00:37.941Z,15.33
2018-02-18T20:03:05.413Z,18.07
2018-02-18T20:05:33.668Z,18.03
2018-02-18T20:08:01.909Z,16.33
2018-02-18T20:10:29.393Z,16.10
2018-02-18T20:12:56.876Z,17.23
2018-02-18T20:15:24.358Z,17.20
2018-02-18T20:17:51.830Z,17.57
2018-02-18T20:20:19.312Z,16.83
2018-02-18T20:22:46.781Z,16.83
2018-02-18T20:25:14.267Z,17.00
2018-02-18T20:27:41.746Z,17.00
2018-02-18T20:30:10.006Z,18.27
2018-02-18T20:32:38.254Z,16.07
2018-02-18T20:35:05.747Z,18.17
2018-02-18T20:37:33.998Z,15.57
2018-02-18T20:40:01.478Z,16.07
2018-02-18T20:42:29.769Z,17.87
2018-02-18T20:44:58.008Z,16.90
2018-02-18T20:47:25.498Z,17.58
2018-02-18T20:49:53.744Z,18.27
2018-02-18T20:52:21.225Z,16.77
2018-02-18T20:54:49.468Z,18.70
2018-02-18T20:57:16.973Z,17.12
2018-02-18T20:59:44.453Z,17.70
2018-02-18T21:02:11.927Z,16.57
2018-02-18T21:04:39.412Z,16.92
2018-02-18T21:07:06.900Z,18.77
2018-02-18T21:09:35.241Z,17.17
2018-02-18T21:12:02.734Z,17.45
2018-02-18T21:14:31.001Z,18.08
2018-02-18T21:16:58.469Z,19.23
2018-02-18T21:19:26.716Z,18.40
2018-02-18T21:21:54.201Z,17.42
2018-02-18T21:24:22.453Z,17.90
2018-02-18T21:26:49.938Z,18.23
2018-02-18T21:29:18.198Z,16.70
2018-02-18T21:31:45.668Z,18.90
2018-02-18T21:34:13.918Z,17.13
2018-02-18T21:36:41.393Z,18.37
2018-02-18T21:39:08.876Z,18.37
2018-02-18T21:41:36.348Z,18.52
2018-02-18T21:44:03.849Z,17.90
2018-02-18T21:46:31.325Z,19.02
2018-02-18T21:49:00.961Z,19.12
2018-02-18T21:51:28.450Z,19.23
2018-02-18T21:53:55.929Z,18.10
2018-02-18T21:56:23.425Z,18.60
2018-02-18T21:58:51.677Z,17.70
2018-02-18T22:01:19.954Z,18.20
2018-02-18T22:03:47.426Z,17.70
2018-02-18T22:06:14.917Z,18.27
2018-02-18T22:08:42.401Z,17.65
2018-02-18T22:11:09.887Z,17.80
2018-02-18T22:13:37.356Z,19.23
2018-02-18T22:16:05.605Z,19.08
2018-02-18T22:18:33.081Z,20.00
2018-02-18T22:21:00.577Z,19.48
2018-02-18T22:23:28.058Z,19.85
2018-02-18T22:25:55.539Z,20.67
2018-02-18T22:28:23.025Z,19.35
2018-02-18T22:30:50.502Z,16.65
2018-02-18T22:33:18.752Z,19.62
2018-02-18T22:35:46.231Z,18.70
2018-02-18T22:38:14.482Z,19.33
2018-02-18T22:40:41.968Z,19.98
2018-02-18T22:43:10.218Z,19.20
2018-02-18T22:45:37.703Z,20.20
2018-02-18T22:48:05.961Z,21.20
2018-02-18T22:50:33.441Z,20.08
2018-02-18T22:53:01.706Z,21.43
2018-02-18T22:55:29.189Z,20.53
2018-02-18T22:57:56.662Z,19.27
2018-02-18T23:00:24.150Z,20.48
2018-02-18T23:02:51.637Z,21.55
2018-02-18T23:05:25.600Z,20.30
2018-02-18T23:07:53.077Z,18.65
2018-02-18T23:10:20.560Z,20.60
2018-02-18T23:12:48.037Z,20.85
2018-02-18T23:15:16.285Z,19.95
2018-02-18T23:17:43.757Z,20.73
2018-02-18T23:20:11.241Z,22.15
2018-02-18T23:22:39.477Z,20.58
2018-02-18T23:25:06.978Z,21.45
2018-02-18T23:27:34.449Z,22.05
2018-02-18T23:30:01.925Z,21.62
2018-02-18T23:32:29.414Z,19.25
2018-02-18T23:34:56.884Z,21.62
2018-02-18T23:37:24.400Z,19.30
2018-02-18T23:39:51.878Z,19.62
2018-02-18T23:42:19.365Z,19.85
2018-02-18T23:44:47.612Z,22.13
2018-02-18T23:47:15.098Z,21.23
2018-02-18T23:49:42.569Z,20.15
2018-02-18T23:52:10.850Z,22.20
2018-02-18T23:54:38.335Z,23.30
2018-02-18T23:57:05.821Z,23.05
2018-02-18T23:59:33.309Z,21.35
